Terminal Aerodrome Forecast
Issued by NWS Paducah, KY

Home | Current Version | Previous Version | Text Only | Print | Product List | Glossary On
Versions: 1 2 3 4 5 6 7 8 9 10 11 12 13 14 15 16 17 18 19 20 21 22
000
FTUS43 KPAH 251100
TAFEVV
TAF
KEVV 251120Z 2512/2612 25010KT P6SM BKN025
     FM251630 21010KT P6SM SCT025
     FM251800 20011G17KT P6SM SCT250
     FM260000 17005KT P6SM SCT250=

USA.gov is the U.S. government's official web portal to all federal, state and local government web resources and services.